createdAt,value
2017-11-14T00:00:01.409Z,10.47
2017-11-14T00:02:27.765Z,9.17
2017-11-14T00:04:54.144Z,8.70
2017-11-14T00:07:20.589Z,8.27
2017-11-14T00:09:46.979Z,7.70
2017-11-14T00:12:13.353Z,6.87
2017-11-14T00:14:41.164Z,8.73
2017-11-14T00:17:07.499Z,9.43
2017-11-14T00:19:34.617Z,8.80
2017-11-14T00:22:00.953Z,7.70
2017-11-14T00:24:27.330Z,6.20
2017-11-14T00:26:54.406Z,9.30
2017-11-14T00:29:20.765Z,9.73
2017-11-14T00:31:47.244Z,8.53
2017-11-14T00:34:14.545Z,8.10
2017-11-14T00:36:40.863Z,9.80
2017-11-14T00:39:07.209Z,7.77
2017-11-14T00:41:33.500Z,9.30
2017-11-14T00:43:59.889Z,8.90
2017-11-14T00:46:27.006Z,9.27
2017-11-14T00:48:53.361Z,10.83
2017-11-14T00:51:19.709Z,9.67
2017-11-14T00:53:46.049Z,9.30
2017-11-14T00:56:12.433Z,10.03
2017-11-14T00:58:38.749Z,9.60
2017-11-14T01:01:05.269Z,9.40
2017-11-14T01:03:31.605Z,8.77
2017-11-14T01:05:58.661Z,11.47
2017-11-14T01:08:25.081Z,9.17
2017-11-14T01:10:51.410Z,9.37
2017-11-14T01:13:17.771Z,9.13
2017-11-14T01:15:44.084Z,10.70
2017-11-14T01:18:10.449Z,10.47
2017-11-14T01:20:37.521Z,13.10
2017-11-14T01:23:04.632Z,10.00
2017-11-14T01:25:30.993Z,11.20
2017-11-14T01:27:57.341Z,12.43
2017-11-14T01:30:23.820Z,13.43
2017-11-14T01:32:50.905Z,10.87
2017-11-14T01:35:17.244Z,14.00
2017-11-14T01:37:43.575Z,12.60
2017-11-14T01:40:09.920Z,13.37
2017-11-14T01:42:37.032Z,12.13
2017-11-14T01:45:03.409Z,13.43
2017-11-14T01:47:29.772Z,11.40
2017-11-14T01:49:56.144Z,11.50
2017-11-14T01:52:22.532Z,12.83
2017-11-14T01:54:49.632Z,12.17
2017-11-14T01:57:16.016Z,13.17
2017-11-14T01:59:42.412Z,14.90
2017-11-14T02:02:08.856Z,14.90
2017-11-14T02:04:35.204Z,15.53
2017-11-14T02:07:01.597Z,15.47
2017-11-14T02:09:27.952Z,16.77
2017-11-14T02:11:54.380Z,13.57
2017-11-14T02:14:20.767Z,13.20
2017-11-14T02:16:47.868Z,13.77
2017-11-14T02:19:14.406Z,13.20
2017-11-14T02:21:40.787Z,12.30
2017-11-14T02:24:07.180Z,12.13
2017-11-14T02:26:33.623Z,14.53
2017-11-14T02:29:01.496Z,12.90
2017-11-14T02:31:27.900Z,14.70
2017-11-14T02:33:55.429Z,16.17
2017-11-14T02:36:21.864Z,17.57
2017-11-14T02:41:42.048Z,16.87
2017-11-14T02:44:08.493Z,19.40
2017-11-14T02:46:36.391Z,19.63
2017-11-14T02:49:02.809Z,17.67
2017-11-14T02:51:29.231Z,14.47
2017-11-14T02:53:55.604Z,21.50
2017-11-14T02:56:21.977Z,19.73
2017-11-14T02:58:48.324Z,19.80
2017-11-14T03:01:14.676Z,20.90
2017-11-14T03:03:41.825Z,22.93
2017-11-14T03:06:08.229Z,21.20
2017-11-14T03:08:35.509Z,22.80
2017-11-14T03:11:01.876Z,22.33
2017-11-14T03:13:28.260Z,22.97
2017-11-14T03:15:54.677Z,21.50
2017-11-14T03:18:21.072Z,23.43
2017-11-14T03:20:48.189Z,20.00
2017-11-14T03:23:14.545Z,21.90
2017-11-14T03:25:40.921Z,21.93
2017-11-14T03:28:07.361Z,19.40
2017-11-14T03:30:34.475Z,22.37
2017-11-14T03:33:00.901Z,21.50
2017-11-14T03:35:27.297Z,22.80
2017-11-14T03:37:53.652Z,20.00
2017-11-14T03:40:20.025Z,20.90
2017-11-14T03:42:47.176Z,19.67
2017-11-14T03:45:13.573Z,21.17
2017-11-14T03:47:39.960Z,20.40
2017-11-14T03:50:06.364Z,18.70
2017-11-14T03:52:32.839Z,20.67
2017-11-14T03:54:59.268Z,20.03
2017-11-14T03:57:25.660Z,19.40
2017-11-14T03:59:52.085Z,23.10
2017-11-14T04:02:18.479Z,21.10
2017-11-14T04:04:44.924Z,19.77
2017-11-14T04:07:11.283Z,20.70
2017-11-14T04:09:38.404Z,18.70
2017-11-14T04:12:04.775Z,18.60
2017-11-14T04:14:31.104Z,17.27
2017-11-14T04:16:57.492Z,20.77
2017-11-14T04:19:23.856Z,19.43
2017-11-14T04:21:50.217Z,16.70
2017-11-14T04:24:16.628Z,17.87
2017-11-14T04:26:43.777Z,16.87
2017-11-14T04:29:10.124Z,16.73
2017-11-14T04:31:36.485Z,15.43
2017-11-14T04:34:02.905Z,15.23
2017-11-14T04:36:29.236Z,12.37
2017-11-14T04:38:55.689Z,15.37
2017-11-14T04:41:22.025Z,16.80
2017-11-14T04:43:48.343Z,16.07
2017-11-14T04:46:14.688Z,14.07
2017-11-14T04:48:41.025Z,13.90
2017-11-14T04:51:07.404Z,16.97
2017-11-14T04:53:33.777Z,15.60
2017-11-14T04:56:00.868Z,15.70
2017-11-14T04:58:27.220Z,16.73
2017-11-14T05:00:53.585Z,15.60
2017-11-14T05:03:20.017Z,15.80
2017-11-14T05:05:46.364Z,16.10
2017-11-14T05:08:12.719Z,13.23
2017-11-14T05:10:39.075Z,17.30
2017-11-14T05:13:06.236Z,16.93
2017-11-14T05:15:32.568Z,16.07
2017-11-14T05:18:00.461Z,15.90
2017-11-14T05:20:26.798Z,17.30
2017-11-14T05:22:53.164Z,15.80
2017-11-14T05:25:20.240Z,18.03
2017-11-14T05:27:47.287Z,17.10
2017-11-14T05:30:13.709Z,18.30
2017-11-14T05:32:40.004Z,18.17
2017-11-14T05:35:06.345Z,18.93
2017-11-14T05:37:34.192Z,18.13
2017-11-14T05:40:00.577Z,18.77
2017-11-14T05:42:27.878Z,16.50
2017-11-14T05:44:54.257Z,17.93
2017-11-14T05:47:20.601Z,18.30
2017-11-14T05:49:46.991Z,17.97
2017-11-14T05:52:13.453Z,20.47
2017-11-14T05:54:39.770Z,19.93
2017-11-14T05:57:06.121Z,17.83
2017-11-14T05:59:32.569Z,17.57
2017-11-14T06:01:58.936Z,19.40
2017-11-14T06:04:26.728Z,18.03
2017-11-14T06:06:53.784Z,19.47
2017-11-14T06:09:20.876Z,19.57
2017-11-14T06:11:47.200Z,19.30
2017-11-14T06:14:13.658Z,17.43
2017-11-14T06:16:40.079Z,20.77
2017-11-14T06:19:06.534Z,17.30
2017-11-14T06:21:32.995Z,17.80
2017-11-14T06:24:00.752Z,15.73
2017-11-14T06:26:27.887Z,18.57
2017-11-14T06:28:54.397Z,17.90
2017-11-14T06:31:21.760Z,22.23
2017-11-14T06:33:48.229Z,18.87
2017-11-14T06:36:14.654Z,17.37
2017-11-14T06:38:41.505Z,15.93
2017-11-14T06:41:08.676Z,16.07
2017-11-14T06:43:35.228Z,16.47
2017-11-14T06:46:01.800Z,16.53
2017-11-14T06:48:28.316Z,18.20
2017-11-14T06:50:54.753Z,14.97
2017-11-14T06:53:21.263Z,17.60
2017-11-14T06:55:47.792Z,19.37
2017-11-14T06:58:14.245Z,16.50
2017-11-14T07:00:40.676Z,17.83
2017-11-14T07:03:07.668Z,16.27
2017-11-14T07:05:34.333Z,18.87
2017-11-14T07:08:01.007Z,17.57
2017-11-14T07:10:27.557Z,16.93
2017-11-14T07:12:53.982Z,17.07
2017-11-14T07:15:21.209Z,16.13
2017-11-14T07:17:47.684Z,16.23
2017-11-14T07:20:14.107Z,16.50
2017-11-14T07:22:41.281Z,17.23
2017-11-14T07:25:07.712Z,17.97
2017-11-14T07:27:34.120Z,16.00
2017-11-14T07:30:00.581Z,15.97
2017-11-14T07:32:27.817Z,16.30
2017-11-14T07:34:54.213Z,18.47
2017-11-14T07:37:21.356Z,16.33
2017-11-14T07:39:48.515Z,15.53
2017-11-14T07:42:15.913Z,17.53
2017-11-14T07:44:43.132Z,16.00
2017-11-14T07:47:10.290Z,14.83
2017-11-14T07:49:37.246Z,13.37
2017-11-14T07:52:04.310Z,17.87
2017-11-14T07:54:32.115Z,15.77
2017-11-14T07:56:59.064Z,15.57
2017-11-14T07:59:27.213Z,16.10
2017-11-14T08:01:53.696Z,13.67
2017-11-14T08:04:20.150Z,13.77
2017-11-14T08:06:46.564Z,13.77
2017-11-14T08:09:13.020Z,14.10
2017-11-14T08:11:40.180Z,14.67
2017-11-14T08:14:06.652Z,13.90
2017-11-14T08:16:33.068Z,13.17
2017-11-14T08:18:59.492Z,12.00
2017-11-14T08:21:25.966Z,12.00
2017-11-14T08:23:52.415Z,12.00
2017-11-14T08:26:18.893Z,10.80
2017-11-14T08:28:46.033Z,13.07
2017-11-14T08:31:13.192Z,11.90
2017-11-14T08:33:39.631Z,11.33
2017-11-14T08:36:06.256Z,10.63
2017-11-14T08:38:33.523Z,12.30
2017-11-14T08:40:59.888Z,10.67
2017-11-14T08:43:26.312Z,9.97
2017-11-14T08:45:53.469Z,10.00
2017-11-14T08:48:19.864Z,10.57
2017-11-14T08:50:46.333Z,9.70
2017-11-14T08:53:12.811Z,10.60
2017-11-14T08:55:39.224Z,8.50
2017-11-14T08:58:05.732Z,9.00
2017-11-14T09:00:32.964Z,9.60
2017-11-14T09:02:59.450Z,7.67
2017-11-14T09:05:25.901Z,8.10
2017-11-14T09:07:52.337Z,8.93
2017-11-14T09:10:19.622Z,6.93
2017-11-14T09:12:46.057Z,7.00
2017-11-14T09:15:15.459Z,8.37
2017-11-14T09:17:42.806Z,7.63
2017-11-14T09:20:09.305Z,8.07
2017-11-14T09:22:35.763Z,8.20
2017-11-14T09:25:02.362Z,7.63
2017-11-14T09:27:29.569Z,9.00
2017-11-14T09:29:56.079Z,9.23
2017-11-14T09:32:22.496Z,8.00
2017-11-14T09:34:48.970Z,8.97
2017-11-14T09:37:16.153Z,8.77
2017-11-14T09:39:42.655Z,9.13
2017-11-14T09:42:09.206Z,7.60
2017-11-14T09:44:37.078Z,9.30
2017-11-14T09:47:05.622Z,7.47
2017-11-14T09:49:32.078Z,8.07
2017-11-14T09:51:58.579Z,7.93
2017-11-14T09:54:25.761Z,8.67
2017-11-14T09:56:52.968Z,6.90
2017-11-14T09:59:19.473Z,8.97
2017-11-14T10:01:45.922Z,7.70
2017-11-14T10:04:12.413Z,8.40
2017-11-14T10:06:39.808Z,6.80
2017-11-14T10:09:09.969Z,6.43
2017-11-14T10:11:36.481Z,6.87
2017-11-14T10:14:02.971Z,7.20
2017-11-14T10:16:30.192Z,7.33
2017-11-14T10:18:56.662Z,6.73
2017-11-14T10:21:23.072Z,7.60
2017-11-14T10:23:50.309Z,7.53
2017-11-14T10:26:16.737Z,7.00
2017-11-14T10:28:43.196Z,6.50
2017-11-14T10:31:09.679Z,8.13
2017-11-14T10:33:36.833Z,6.93
2017-11-14T10:36:03.985Z,8.20
2017-11-14T10:38:31.257Z,7.60
2017-11-14T10:40:58.544Z,7.20
2017-11-14T10:43:25.695Z,7.93
2017-11-14T10:45:52.893Z,6.50
2017-11-14T10:48:19.305Z,7.23
2017-11-14T10:50:47.540Z,5.60
2017-11-14T10:53:13.992Z,7.40
2017-11-14T10:55:40.369Z,6.80
2017-11-14T10:58:06.843Z,6.67
2017-11-14T11:00:39.349Z,9.37
2017-11-14T11:03:05.983Z,7.60
2017-11-14T11:05:33.233Z,7.47
2017-11-14T11:07:59.760Z,7.43
2017-11-14T11:10:26.259Z,7.27
2017-11-14T11:12:53.495Z,6.57
2017-11-14T11:15:20.077Z,6.60
2017-11-14T11:17:46.721Z,6.03
2017-11-14T11:20:13.142Z,6.07
2017-11-14T11:22:39.630Z,4.93
2017-11-14T11:25:06.176Z,6.20
2017-11-14T11:27:32.658Z,6.07
2017-11-14T11:29:59.159Z,5.63
2017-11-14T11:32:25.625Z,5.63
2017-11-14T11:34:52.144Z,6.20
2017-11-14T11:37:18.588Z,6.90
2017-11-14T11:39:45.932Z,7.13
2017-11-14T11:42:12.541Z,6.47
2017-11-14T11:44:41.353Z,6.97
2017-11-14T11:47:08.879Z,7.60
2017-11-14T11:49:37.172Z,6.43
2017-11-14T11:52:04.368Z,7.20
2017-11-14T11:54:30.772Z,6.60
2017-11-14T11:56:57.964Z,6.27
2017-11-14T11:59:25.178Z,5.57
2017-11-14T12:01:51.697Z,6.63
2017-11-14T12:04:18.982Z,7.40
2017-11-14T12:06:46.133Z,7.90
2017-11-14T12:09:12.554Z,6.10
2017-11-14T12:11:39.741Z,6.70
2017-11-14T12:14:06.938Z,7.40
2017-11-14T12:16:34.102Z,6.63
2017-11-14T12:19:00.573Z,7.63
2017-11-14T12:21:27.116Z,6.40
2017-11-14T12:23:53.620Z,5.67
2017-11-14T12:26:20.067Z,6.53
2017-11-14T12:28:46.469Z,6.20
2017-11-14T12:31:12.885Z,5.33
2017-11-14T12:33:40.920Z,6.00
2017-11-14T12:36:07.760Z,6.03
2017-11-14T12:38:34.694Z,7.40
2017-11-14T12:41:01.754Z,6.67
2017-11-14T12:43:28.622Z,6.90
2017-11-14T12:45:55.152Z,7.33
2017-11-14T12:48:21.612Z,5.73
2017-11-14T12:50:48.017Z,6.27
2017-11-14T12:53:14.421Z,6.87
2017-11-14T12:55:40.878Z,6.40
2017-11-14T12:58:08.777Z,6.27
2017-11-14T13:00:35.208Z,6.20
2017-11-14T13:03:02.354Z,7.10
2017-11-14T13:05:28.698Z,5.27
2017-11-14T13:07:55.144Z,6.40
2017-11-14T13:10:21.540Z,5.60
2017-11-14T13:12:48.771Z,5.77
2017-11-14T13:15:15.309Z,8.30
2017-11-14T13:17:41.750Z,8.90
2017-11-14T13:20:08.928Z,8.93
2017-11-14T13:22:35.332Z,12.33
2017-11-14T13:25:01.805Z,8.37
2017-11-14T13:27:28.240Z,7.17
2017-11-14T13:29:55.489Z,7.60
2017-11-14T13:32:22.026Z,7.17
2017-11-14T13:34:48.489Z,8.37
2017-11-14T13:37:14.889Z,6.07
2017-11-14T13:39:41.281Z,5.77
2017-11-14T13:42:08.253Z,5.70
2017-11-14T13:44:34.804Z,5.60
2017-11-14T13:47:01.277Z,5.50
2017-11-14T13:49:28.873Z,6.20
2017-11-14T13:51:55.310Z,5.10
2017-11-14T13:54:21.720Z,4.90
2017-11-14T13:56:48.129Z,5.70
2017-11-14T13:59:14.570Z,5.90
2017-11-14T14:01:40.988Z,6.20
2017-11-14T14:04:07.406Z,5.20
2017-11-14T14:06:33.873Z,4.40
2017-11-14T14:09:00.329Z,5.50
2017-11-14T14:11:26.726Z,6.30
2017-11-14T14:13:53.126Z,4.70
2017-11-14T14:16:19.512Z,6.40
2017-11-14T14:18:45.995Z,5.10
2017-11-14T14:21:13.152Z,4.77
2017-11-14T14:23:39.567Z,6.43
2017-11-14T14:26:05.953Z,6.57
2017-11-14T14:28:35.320Z,4.93
2017-11-14T14:31:01.830Z,4.93
2017-11-14T14:33:28.302Z,4.80
2017-11-14T14:35:54.706Z,4.70
2017-11-14T14:38:21.790Z,6.00
2017-11-14T14:40:48.975Z,6.73
2017-11-14T14:43:15.576Z,5.10
2017-11-14T14:45:42.740Z,5.03
2017-11-14T14:48:09.953Z,5.90
2017-11-14T14:50:36.333Z,4.67
2017-11-14T14:53:03.256Z,4.70
2017-11-14T14:55:30.447Z,5.87
2017-11-14T14:57:57.588Z,5.50
2017-11-14T15:00:24.777Z,4.53
2017-11-14T15:02:51.205Z,5.17
2017-11-14T15:05:19.405Z,4.80
2017-11-14T15:07:49.289Z,5.00
2017-11-14T15:10:18.460Z,5.33
2017-11-14T15:12:46.064Z,5.77
2017-11-14T15:15:13.657Z,6.40
2017-11-14T15:17:41.760Z,5.50
2017-11-14T15:20:09.251Z,4.57
2017-11-14T15:22:38.325Z,6.73
2017-11-14T15:25:05.728Z,6.80
2017-11-14T15:27:33.032Z,5.47
2017-11-14T15:30:00.386Z,6.30
2017-11-14T15:32:27.026Z,5.47
2017-11-14T15:34:54.221Z,5.00
2017-11-14T15:37:21.385Z,5.13
2017-11-14T15:39:47.888Z,6.20
2017-11-14T15:42:14.339Z,5.10
2017-11-14T15:44:40.853Z,5.00
2017-11-14T15:47:07.461Z,5.23
2017-11-14T15:49:33.945Z,5.53
2017-11-14T15:52:01.387Z,4.67
2017-11-14T15:54:30.025Z,4.73
2017-11-14T15:56:56.596Z,5.30
2017-11-14T15:59:23.112Z,5.87
2017-11-14T16:01:49.614Z,5.40
2017-11-14T16:04:16.097Z,4.63
2017-11-14T16:06:43.295Z,5.57
2017-11-14T16:09:09.765Z,5.67
2017-11-14T16:11:36.257Z,5.37
2017-11-14T16:14:03.446Z,5.37
2017-11-14T16:16:29.900Z,4.60
2017-11-14T16:18:57.039Z,6.10
2017-11-14T16:21:23.402Z,5.37
2017-11-14T16:23:50.552Z,4.63
2017-11-14T16:26:16.929Z,5.47
2017-11-14T16:28:44.057Z,5.70
2017-11-14T16:31:10.418Z,5.40
2017-11-14T16:33:37.526Z,4.90
2017-11-14T16:36:03.924Z,5.47
2017-11-14T16:38:30.332Z,5.63
2017-11-14T16:40:56.721Z,5.30
2017-11-14T16:43:23.823Z,5.03
2017-11-14T16:45:50.240Z,5.53
2017-11-14T16:48:16.612Z,6.57
2017-11-14T16:50:42.981Z,4.60
2017-11-14T16:53:09.341Z,5.33
2017-11-14T16:55:35.717Z,5.10
2017-11-14T16:58:02.125Z,6.10
2017-11-14T17:00:28.771Z,5.87
2017-11-14T17:02:55.151Z,4.87
2017-11-14T17:05:22.285Z,6.40
2017-11-14T17:07:48.656Z,5.10
2017-11-14T17:10:15.762Z,5.03
2017-11-14T17:12:42.121Z,5.83
2017-11-14T17:15:08.966Z,5.63
2017-11-14T17:17:35.326Z,4.70
2017-11-14T17:20:03.203Z,5.27
2017-11-14T17:22:30.294Z,6.67
2017-11-14T17:24:56.653Z,6.47
2017-11-14T17:27:23.226Z,5.90
2017-11-14T17:29:49.720Z,5.17
2017-11-14T17:32:16.038Z,5.40
2017-11-14T17:34:42.429Z,5.83
2017-11-14T17:37:08.758Z,5.90
2017-11-14T17:39:35.101Z,7.00
2017-11-14T17:42:01.429Z,7.10
2017-11-14T17:44:28.505Z,6.10
2017-11-14T17:46:55.593Z,6.10
2017-11-14T17:49:21.969Z,6.70
2017-11-14T17:51:49.077Z,7.67
2017-11-14T17:54:15.413Z,6.50
2017-11-14T17:56:41.784Z,7.07
2017-11-14T17:59:08.115Z,6.43
2017-11-14T18:01:34.493Z,6.13
2017-11-14T18:04:00.865Z,7.10
2017-11-14T18:06:27.977Z,5.40
2017-11-14T18:08:54.349Z,6.87
2017-11-14T18:11:20.708Z,5.80
2017-11-14T18:13:47.081Z,6.20
2017-11-14T18:16:13.431Z,6.70
2017-11-14T18:18:39.816Z,6.93
2017-11-14T18:21:06.165Z,6.77
2017-11-14T18:23:32.524Z,5.80
2017-11-14T18:25:58.889Z,6.83
2017-11-14T18:28:25.257Z,7.07
2017-11-14T18:30:51.836Z,6.80
2017-11-14T18:33:18.182Z,7.10
2017-11-14T18:35:44.549Z,6.83
2017-11-14T18:38:11.637Z,5.43
2017-11-14T18:40:38.025Z,7.13
2017-11-14T18:43:04.357Z,6.07
2017-11-14T18:45:30.757Z,6.97
2017-11-14T18:47:57.158Z,6.83
2017-11-14T18:50:24.306Z,6.40
2017-11-14T18:52:50.893Z,7.17
2017-11-14T18:55:17.988Z,7.03
2017-11-14T18:57:44.378Z,7.43
2017-11-14T19:00:10.808Z,7.03
2017-11-14T19:02:37.142Z,7.30
2017-11-14T19:05:04.253Z,7.23
2017-11-14T19:07:30.821Z,6.67
2017-11-14T19:09:57.155Z,7.57
2017-11-14T19:12:23.517Z,6.53
2017-11-14T19:14:49.848Z,7.10
2017-11-14T19:17:16.208Z,7.27
2017-11-14T19:19:42.557Z,7.10
2017-11-14T19:22:08.928Z,7.17
2017-11-14T19:24:35.277Z,7.47
2017-11-14T19:27:01.617Z,5.87
2017-11-14T19:29:27.973Z,7.90
2017-11-14T19:31:54.341Z,7.27
2017-11-14T19:34:21.431Z,7.67
2017-11-14T19:36:47.808Z,7.43
2017-11-14T19:39:15.642Z,8.53
2017-11-14T19:41:41.969Z,7.43
2017-11-14T19:44:08.332Z,7.60
2017-11-14T19:46:34.661Z,6.37
2017-11-14T19:49:01.027Z,6.47
2017-11-14T19:51:27.376Z,7.13
2017-11-14T19:53:53.766Z,6.40
2017-11-14T19:56:20.076Z,6.90
2017-11-14T19:58:46.452Z,7.00
2017-11-14T20:01:13.545Z,6.20
2017-11-14T20:03:39.893Z,7.40
2017-11-14T20:06:06.249Z,6.73
2017-11-14T20:08:32.597Z,7.40
2017-11-14T20:10:59.037Z,7.10
2017-11-14T20:13:25.446Z,8.30
2017-11-14T20:15:51.826Z,7.67
2017-11-14T20:18:18.164Z,7.30
2017-11-14T20:20:44.584Z,7.17
2017-11-14T20:23:10.936Z,7.13
2017-11-14T20:25:39.064Z,6.60
2017-11-14T20:28:05.397Z,8.57
2017-11-14T20:30:32.234Z,7.03
2017-11-14T20:32:58.577Z,6.97
2017-11-14T20:35:24.896Z,7.53
2017-11-14T20:37:51.476Z,8.10
2017-11-14T20:40:17.794Z,7.20
2017-11-14T20:42:44.176Z,8.10
2017-11-14T20:45:10.501Z,6.87
2017-11-14T20:47:36.865Z,7.70
2017-11-14T20:50:03.987Z,6.40
2017-11-14T20:52:30.337Z,6.97
2017-11-14T20:54:56.665Z,7.83
2017-11-14T20:57:23.261Z,7.13
2017-11-14T20:59:50.389Z,6.77
2017-11-14T21:02:17.529Z,8.20
2017-11-14T21:04:43.884Z,7.53
2017-11-14T21:07:10.217Z,7.40
2017-11-14T21:09:36.765Z,7.30
2017-11-14T21:12:03.132Z,7.93
2017-11-14T21:14:29.493Z,8.03
2017-11-14T21:16:55.844Z,8.30
2017-11-14T21:19:22.253Z,9.60
2017-11-14T21:21:48.663Z,8.20
2017-11-14T21:24:16.585Z,10.03
2017-11-14T21:26:42.923Z,9.23
2017-11-14T21:29:09.278Z,8.83
2017-11-14T21:31:35.629Z,14.43
2017-11-14T21:34:02.765Z,19.37
2017-11-14T21:36:29.121Z,10.53
2017-11-14T21:38:55.458Z,12.53
2017-11-14T21:41:21.805Z,10.53
2017-11-14T21:43:48.176Z,9.73
2017-11-14T21:46:14.525Z,11.20
2017-11-14T21:48:40.889Z,12.40
2017-11-14T21:51:07.964Z,10.80
2017-11-14T21:53:35.060Z,9.97
2017-11-14T21:56:01.631Z,9.53
2017-11-14T21:58:28.733Z,11.87
2017-11-14T22:00:55.081Z,9.90
2017-11-14T22:03:21.621Z,10.23
2017-11-14T22:05:47.948Z,10.60
2017-11-14T22:08:15.759Z,10.73
2017-11-14T22:10:42.101Z,11.50
2017-11-14T22:13:08.449Z,12.83
2017-11-14T22:15:34.772Z,12.33
2017-11-14T22:18:01.176Z,13.00
2017-11-14T22:20:28.270Z,12.07
2017-11-14T22:22:55.357Z,13.33
2017-11-14T22:25:21.712Z,12.73
2017-11-14T22:27:48.016Z,15.07
2017-11-14T22:30:14.380Z,12.40
2017-11-14T22:32:40.706Z,13.97
2017-11-14T22:35:07.101Z,15.87
2017-11-14T22:37:33.420Z,15.83
2017-11-14T22:39:59.777Z,15.30
2017-11-14T22:42:26.114Z,17.20
2017-11-14T22:44:52.776Z,16.47
2017-11-14T22:47:19.122Z,16.10
2017-11-14T22:49:45.461Z,16.20
2017-11-14T22:52:11.821Z,15.50
2017-11-14T22:54:38.165Z,15.00
2017-11-14T22:57:05.496Z,18.70
2017-11-14T22:59:31.840Z,17.30
2017-11-14T23:01:58.199Z,18.80
2017-11-14T23:04:24.499Z,16.07
2017-11-14T23:06:50.841Z,17.27
2017-11-14T23:09:17.233Z,15.83
2017-11-14T23:11:45.069Z,16.60
2017-11-14T23:14:11.421Z,16.53
2017-11-14T23:16:37.849Z,17.00
2017-11-14T23:19:04.198Z,20.00
2017-11-14T23:21:30.521Z,17.33
2017-11-14T23:23:56.872Z,16.63
2017-11-14T23:26:23.193Z,16.87
2017-11-14T23:28:50.324Z,20.90
2017-11-14T23:31:16.629Z,18.40
2017-11-14T23:33:42.992Z,16.73
2017-11-14T23:36:09.321Z,19.63
2017-11-14T23:38:35.673Z,17.70
2017-11-14T23:41:01.984Z,17.80
2017-11-14T23:43:28.324Z,15.37
2017-11-14T23:45:54.676Z,18.80
2017-11-14T23:48:21.004Z,18.30
2017-11-14T23:50:47.368Z,16.90
2017-11-14T23:53:13.683Z,16.60
2017-11-14T23:55:40.269Z,19.00
2017-11-14T23:58:06.580Z,17.50
